sensor_id;sensor_type;location;lat;lon;timestamp;temperature;humidity
58666;DHT22;44436;52.872;6.520;2022-10-30T00:01:57;15.30;99.90
58666;DHT22;44436;52.872;6.520;2022-10-30T00:04:22;15.30;99.90
58666;DHT22;44436;52.872;6.520;2022-10-30T00:06:48;15.30;99.90
58666;DHT22;44436;52.872;6.520;2022-10-30T00:09:14;15.20;99.90
58666;DHT22;44436;52.872;6.520;2022-10-30T00:11:40;15.20;99.90
58666;DHT22;44436;52.872;6.520;2022-10-30T00:14:07;15.20;99.90
58666;DHT22;44436;52.872;6.520;2022-10-30T00:16:33;15.20;99.90
58666;DHT22;44436;52.872;6.520;2022-10-30T00:18:58;15.20;99.90
58666;DHT22;44436;52.872;6.520;2022-10-30T00:21:24;15.20;99.90
58666;DHT22;44436;52.872;6.520;2022-10-30T00:23:51;15.20;99.90
58666;DHT22;44436;52.872;6.520;2022-10-30T00:26:18;15.20;99.90
58666;DHT22;44436;52.872;6.520;2022-10-30T00:28:51;15.20;99.90
58666;DHT22;44436;52.872;6.520;2022-10-30T00:31:17;15.20;99.90
58666;DHT22;44436;52.872;6.520;2022-10-30T00:33:43;15.20;99.90
58666;DHT22;44436;52.872;6.520;2022-10-30T00:36:08;15.20;99.90
58666;DHT22;44436;52.872;6.520;2022-10-30T00:38:34;15.20;99.90
58666;DHT22;44436;52.872;6.520;2022-10-30T00:41:00;15.20;99.90
58666;DHT22;44436;52.872;6.520;2022-10-30T00:43:26;15.20;99.90
58666;DHT22;44436;52.872;6.520;2022-10-30T00:45:52;15.10;99.90
58666;DHT22;44436;52.872;6.520;2022-10-30T00:48:21;15.20;99.90
58666;DHT22;44436;52.872;6.520;2022-10-30T00:50:48;15.20;99.90
58666;DHT22;44436;52.872;6.520;2022-10-30T00:53:15;15.10;99.90
58666;DHT22;44436;52.872;6.520;2022-10-30T00:55:51;15.10;99.90
58666;DHT22;44436;52.872;6.520;2022-10-30T00:58:21;15.20;99.90
58666;DHT22;44436;52.872;6.520;2022-10-30T01:00:51;15.10;99.90
58666;DHT22;44436;52.872;6.520;2022-10-30T01:03:20;15.20;99.90
58666;DHT22;44436;52.872;6.520;2022-10-30T01:05:50;15.20;99.90
58666;DHT22;44436;52.872;6.520;2022-10-30T01:08:17;15.20;99.90
58666;DHT22;44436;52.872;6.520;2022-10-30T01:10:43;15.20;99.90
58666;DHT22;44436;52.872;6.520;2022-10-30T01:13:09;15.20;99.90
58666;DHT22;44436;52.872;6.520;2022-10-30T01:15:40;15.10;99.90
58666;DHT22;44436;52.872;6.520;2022-10-30T01:21:47;15.10;99.90
58666;DHT22;44436;52.872;6.520;2022-10-30T01:27:12;15.10;99.90
58666;DHT22;44436;52.872;6.520;2022-10-30T01:30:01;15.10;99.90
58666;DHT22;44436;52.872;6.520;2022-10-30T01:32:48;15.10;99.90
58666;DHT22;44436;52.872;6.520;2022-10-30T01:35:31;15.00;99.90
58666;DHT22;44436;52.872;6.520;2022-10-30T01:40:33;15.00;99.90
58666;DHT22;44436;52.872;6.520;2022-10-30T01:42:59;14.90;99.90
58666;DHT22;44436;52.872;6.520;2022-10-30T01:56:25;14.80;99.90
58666;DHT22;44436;52.872;6.520;2022-10-30T01:59:06;14.80;99.90
58666;DHT22;44436;52.872;6.520;2022-10-30T02:01:33;14.80;99.90
58666;DHT22;44436;52.872;6.520;2022-10-30T02:04:02;14.80;99.90
58666;DHT22;44436;52.872;6.520;2022-10-30T02:06:28;14.70;99.90
58666;DHT22;44436;52.872;6.520;2022-10-30T02:08:54;14.70;99.90
58666;DHT22;44436;52.872;6.520;2022-10-30T02:11:22;14.70;99.90
58666;DHT22;44436;52.872;6.520;2022-10-30T02:13:49;14.70;99.90
58666;DHT22;44436;52.872;6.520;2022-10-30T02:16:16;14.70;99.90
58666;DHT22;44436;52.872;6.520;2022-10-30T02:18:42;14.70;99.90
58666;DHT22;44436;52.872;6.520;2022-10-30T02:21:08;14.70;99.90
58666;DHT22;44436;52.872;6.520;2022-10-30T02:23:34;14.60;99.90
58666;DHT22;44436;52.872;6.520;2022-10-30T02:26:00;14.60;99.90
58666;DHT22;44436;52.872;6.520;2022-10-30T02:28:25;14.60;99.90
58666;DHT22;44436;52.872;6.520;2022-10-30T02:30:51;14.60;99.90
58666;DHT22;44436;52.872;6.520;2022-10-30T02:33:17;14.50;99.90
58666;DHT22;44436;52.872;6.520;2022-10-30T02:35:42;14.50;99.90
58666;DHT22;44436;52.872;6.520;2022-10-30T02:38:08;14.50;99.90
58666;DHT22;44436;52.872;6.520;2022-10-30T02:40:34;14.50;99.90
58666;DHT22;44436;52.872;6.520;2022-10-30T02:42:59;14.40;99.90
58666;DHT22;44436;52.872;6.520;2022-10-30T02:45:25;14.50;99.90
58666;DHT22;44436;52.872;6.520;2022-10-30T02:47:51;14.40;99.90
58666;DHT22;44436;52.872;6.520;2022-10-30T02:50:17;14.40;99.90
58666;DHT22;44436;52.872;6.520;2022-10-30T02:52:42;14.40;99.90
58666;DHT22;44436;52.872;6.520;2022-10-30T02:55:08;14.40;99.90
58666;DHT22;44436;52.872;6.520;2022-10-30T02:57:34;14.30;99.90
58666;DHT22;44436;52.872;6.520;2022-10-30T03:00:00;14.30;99.90
58666;DHT22;44436;52.872;6.520;2022-10-30T03:02:26;14.30;99.90
58666;DHT22;44436;52.872;6.520;2022-10-30T03:04:51;14.30;99.90
58666;DHT22;44436;52.872;6.520;2022-10-30T03:07:17;14.20;99.90
58666;DHT22;44436;52.872;6.520;2022-10-30T03:09:43;14.20;99.90
58666;DHT22;44436;52.872;6.520;2022-10-30T03:12:08;14.10;99.90
58666;DHT22;44436;52.872;6.520;2022-10-30T03:14:34;14.10;99.90
58666;DHT22;44436;52.872;6.520;2022-10-30T03:16:59;14.10;99.90
58666;DHT22;44436;52.872;6.520;2022-10-30T03:19:25;14.10;99.90
58666;DHT22;44436;52.872;6.520;2022-10-30T03:21:52;14.00;99.90
58666;DHT22;44436;52.872;6.520;2022-10-30T03:24:18;14.10;99.90
58666;DHT22;44436;52.872;6.520;2022-10-30T03:26:45;14.00;99.90
58666;DHT22;44436;52.872;6.520;2022-10-30T03:29:11;14.00;99.90
58666;DHT22;44436;52.872;6.520;2022-10-30T03:31:36;14.00;99.90
58666;DHT22;44436;52.872;6.520;2022-10-30T03:34:02;14.00;99.90
58666;DHT22;44436;52.872;6.520;2022-10-30T03:36:28;14.00;99.90
58666;DHT22;44436;52.872;6.520;2022-10-30T03:38:53;13.90;99.90
58666;DHT22;44436;52.872;6.520;2022-10-30T03:41:19;13.90;99.90
58666;DHT22;44436;52.872;6.520;2022-10-30T03:43:45;13.90;99.90
58666;DHT22;44436;52.872;6.520;2022-10-30T03:46:10;14.00;99.90
58666;DHT22;44436;52.872;6.520;2022-10-30T03:48:36;13.90;99.90
58666;DHT22;44436;52.872;6.520;2022-10-30T03:51:02;13.90;99.90
58666;DHT22;44436;52.872;6.520;2022-10-30T03:53:28;13.90;99.90
58666;DHT22;44436;52.872;6.520;2022-10-30T03:56:01;13.90;99.90
58666;DHT22;44436;52.872;6.520;2022-10-30T03:58:27;13.90;99.90
58666;DHT22;44436;52.872;6.520;2022-10-30T04:00:54;13.80;99.90
58666;DHT22;44436;52.872;6.520;2022-10-30T04:03:19;13.80;99.90
58666;DHT22;44436;52.872;6.520;2022-10-30T04:05:45;13.80;99.90
58666;DHT22;44436;52.872;6.520;2022-10-30T04:08:15;13.80;99.90
58666;DHT22;44436;52.872;6.520;2022-10-30T04:10:42;13.80;99.90
58666;DHT22;44436;52.872;6.520;2022-10-30T04:13:09;13.80;99.90
58666;DHT22;44436;52.872;6.520;2022-10-30T04:15:35;13.80;99.90
58666;DHT22;44436;52.872;6.520;2022-10-30T04:18:01;13.80;99.90
58666;DHT22;44436;52.872;6.520;2022-10-30T04:20:28;13.80;99.90
58666;DHT22;44436;52.872;6.520;2022-10-30T04:22:58;13.80;99.90
58666;DHT22;44436;52.872;6.520;2022-10-30T04:25:25;13.70;99.90
58666;DHT22;44436;52.872;6.520;2022-10-30T04:27:51;13.70;99.90
58666;DHT22;44436;52.872;6.520;2022-10-30T04:30:20;13.70;99.90
58666;DHT22;44436;52.872;6.520;2022-10-30T04:32:50;13.70;99.90
58666;DHT22;44436;52.872;6.520;2022-10-30T04:35:18;13.60;99.90
58666;DHT22;44436;52.872;6.520;2022-10-30T04:37:57;13.60;99.90
58666;DHT22;44436;52.872;6.520;2022-10-30T04:40:24;13.60;99.90
58666;DHT22;44436;52.872;6.520;2022-10-30T04:42:50;13.60;99.90
58666;DHT22;44436;52.872;6.520;2022-10-30T04:45:17;13.50;99.90
58666;DHT22;44436;52.872;6.520;2022-10-30T04:47:43;13.50;99.90
58666;DHT22;44436;52.872;6.520;2022-10-30T04:50:09;13.50;99.90
58666;DHT22;44436;52.872;6.520;2022-10-30T04:52:35;13.50;99.90
58666;DHT22;44436;52.872;6.520;2022-10-30T04:55:01;13.40;99.90
58666;DHT22;44436;52.872;6.520;2022-10-30T04:57:26;13.40;99.90
58666;DHT22;44436;52.872;6.520;2022-10-30T04:59:52;13.40;99.90
58666;DHT22;44436;52.872;6.520;2022-10-30T05:02:18;13.40;99.90
58666;DHT22;44436;52.872;6.520;2022-10-30T05:04:44;13.40;99.90
58666;DHT22;44436;52.872;6.520;2022-10-30T05:07:10;13.40;99.90
58666;DHT22;44436;52.872;6.520;2022-10-30T05:09:36;13.40;99.90
58666;DHT22;44436;52.872;6.520;2022-10-30T05:12:02;13.40;99.90
58666;DHT22;44436;52.872;6.520;2022-10-30T05:14:31;13.30;99.90
58666;DHT22;44436;52.872;6.520;2022-10-30T05:16:57;13.30;99.90
58666;DHT22;44436;52.872;6.520;2022-10-30T05:19:23;13.40;99.90
58666;DHT22;44436;52.872;6.520;2022-10-30T05:21:49;13.30;99.90
58666;DHT22;44436;52.872;6.520;2022-10-30T05:24:15;13.30;99.90
58666;DHT22;44436;52.872;6.520;2022-10-30T05:26:41;13.30;99.90
58666;DHT22;44436;52.872;6.520;2022-10-30T05:29:06;13.30;99.90
58666;DHT22;44436;52.872;6.520;2022-10-30T05:31:32;13.30;99.90
58666;DHT22;44436;52.872;6.520;2022-10-30T05:33:58;13.20;99.90
58666;DHT22;44436;52.872;6.520;2022-10-30T05:36:23;13.20;99.90
58666;DHT22;44436;52.872;6.520;2022-10-30T05:38:49;13.20;99.90
58666;DHT22;44436;52.872;6.520;2022-10-30T05:41:15;13.20;99.90
58666;DHT22;44436;52.872;6.520;2022-10-30T05:43:41;13.20;99.90
58666;DHT22;44436;52.872;6.520;2022-10-30T05:46:06;13.20;99.90
58666;DHT22;44436;52.872;6.520;2022-10-30T05:48:32;13.20;99.90
58666;DHT22;44436;52.872;6.520;2022-10-30T05:50:57;13.20;99.90
58666;DHT22;44436;52.872;6.520;2022-10-30T05:53:23;13.10;99.90
58666;DHT22;44436;52.872;6.520;2022-10-30T05:55:49;13.10;99.90
58666;DHT22;44436;52.872;6.520;2022-10-30T05:58:15;13.10;99.90
58666;DHT22;44436;52.872;6.520;2022-10-30T06:00:40;13.10;99.90
58666;DHT22;44436;52.872;6.520;2022-10-30T06:03:11;13.10;99.90
58666;DHT22;44436;52.872;6.520;2022-10-30T06:05:37;13.10;99.90
58666;DHT22;44436;52.872;6.520;2022-10-30T06:08:04;13.10;99.90
58666;DHT22;44436;52.872;6.520;2022-10-30T06:10:30;13.10;99.90
58666;DHT22;44436;52.872;6.520;2022-10-30T06:12:58;13.10;99.90
58666;DHT22;44436;52.872;6.520;2022-10-30T06:15:23;13.00;99.90
58666;DHT22;44436;52.872;6.520;2022-10-30T06:17:49;13.00;99.90
58666;DHT22;44436;52.872;6.520;2022-10-30T06:20:17;13.00;99.90
58666;DHT22;44436;52.872;6.520;2022-10-30T06:25:19;13.10;99.90
58666;DHT22;44436;52.872;6.520;2022-10-30T06:27:44;13.00;99.90
58666;DHT22;44436;52.872;6.520;2022-10-30T06:30:10;13.00;99.90
58666;DHT22;44436;52.872;6.520;2022-10-30T06:32:36;13.00;99.90
58666;DHT22;44436;52.872;6.520;2022-10-30T06:35:02;13.00;99.90
58666;DHT22;44436;52.872;6.520;2022-10-30T06:37:27;12.90;99.90
58666;DHT22;44436;52.872;6.520;2022-10-30T06:39:54;12.90;99.90
58666;DHT22;44436;52.872;6.520;2022-10-30T06:42:20;12.90;99.90
58666;DHT22;44436;52.872;6.520;2022-10-30T06:44:46;12.90;99.90
58666;DHT22;44436;52.872;6.520;2022-10-30T06:47:13;12.90;99.90
58666;DHT22;44436;52.872;6.520;2022-10-30T06:49:39;12.90;99.90
58666;DHT22;44436;52.872;6.520;2022-10-30T06:52:05;12.90;99.90
58666;DHT22;44436;52.872;6.520;2022-10-30T06:54:31;12.80;99.90
58666;DHT22;44436;52.872;6.520;2022-10-30T06:56:56;12.80;99.90
58666;DHT22;44436;52.872;6.520;2022-10-30T06:59:22;12.80;99.90
58666;DHT22;44436;52.872;6.520;2022-10-30T07:01:47;12.80;99.90
58666;DHT22;44436;52.872;6.520;2022-10-30T07:04:13;12.80;99.90
58666;DHT22;44436;52.872;6.520;2022-10-30T07:06:39;12.80;99.90
58666;DHT22;44436;52.872;6.520;2022-10-30T07:09:05;12.80;99.90
58666;DHT22;44436;52.872;6.520;2022-10-30T07:11:30;12.80;99.90
58666;DHT22;44436;52.872;6.520;2022-10-30T07:13:56;12.80;99.90
58666;DHT22;44436;52.872;6.520;2022-10-30T07:16:22;12.80;99.90
58666;DHT22;44436;52.872;6.520;2022-10-30T07:18:47;12.80;99.90
58666;DHT22;44436;52.872;6.520;2022-10-30T07:21:13;12.80;99.90
58666;DHT22;44436;52.872;6.520;2022-10-30T07:23:39;12.90;99.90
58666;DHT22;44436;52.872;6.520;2022-10-30T07:26:04;12.90;99.90
58666;DHT22;44436;52.872;6.520;2022-10-30T07:28:32;12.90;99.90
58666;DHT22;44436;52.872;6.520;2022-10-30T07:30:57;12.90;99.90
58666;DHT22;44436;52.872;6.520;2022-10-30T07:33:23;12.90;99.90
58666;DHT22;44436;52.872;6.520;2022-10-30T07:35:49;13.00;99.90
58666;DHT22;44436;52.872;6.520;2022-10-30T07:38:15;13.00;99.90
58666;DHT22;44436;52.872;6.520;2022-10-30T07:40:42;13.00;99.90
58666;DHT22;44436;52.872;6.520;2022-10-30T07:43:09;13.10;99.90
58666;DHT22;44436;52.872;6.520;2022-10-30T07:45:38;13.10;99.90
58666;DHT22;44436;52.872;6.520;2022-10-30T07:48:04;13.10;99.90
58666;DHT22;44436;52.872;6.520;2022-10-30T07:50:30;13.10;99.90
58666;DHT22;44436;52.872;6.520;2022-10-30T07:52:56;13.20;99.90
58666;DHT22;44436;52.872;6.520;2022-10-30T07:55:22;13.20;99.90
58666;DHT22;44436;52.872;6.520;2022-10-30T07:57:48;13.30;99.90
58666;DHT22;44436;52.872;6.520;2022-10-30T08:00:14;13.30;99.90
58666;DHT22;44436;52.872;6.520;2022-10-30T08:02:40;13.40;99.90
58666;DHT22;44436;52.872;6.520;2022-10-30T08:05:07;13.40;99.90
58666;DHT22;44436;52.872;6.520;2022-10-30T08:07:34;13.40;99.90
58666;DHT22;44436;52.872;6.520;2022-10-30T08:10:00;13.50;99.90
58666;DHT22;44436;52.872;6.520;2022-10-30T08:12:27;13.50;99.90
58666;DHT22;44436;52.872;6.520;2022-10-30T08:14:52;13.60;99.90
58666;DHT22;44436;52.872;6.520;2022-10-30T08:17:19;13.60;99.90
58666;DHT22;44436;52.872;6.520;2022-10-30T08:19:45;13.70;99.90
58666;DHT22;44436;52.872;6.520;2022-10-30T08:22:10;13.70;99.90
58666;DHT22;44436;52.872;6.520;2022-10-30T08:24:36;13.80;99.90
58666;DHT22;44436;52.872;6.520;2022-10-30T08:27:03;13.80;99.90
58666;DHT22;44436;52.872;6.520;2022-10-30T08:29:29;13.80;99.90
58666;DHT22;44436;52.872;6.520;2022-10-30T08:31:55;13.90;99.90
58666;DHT22;44436;52.872;6.520;2022-10-30T08:34:20;14.00;99.90
58666;DHT22;44436;52.872;6.520;2022-10-30T08:36:50;14.00;99.90
58666;DHT22;44436;52.872;6.520;2022-10-30T08:39:17;14.10;99.90
58666;DHT22;44436;52.872;6.520;2022-10-30T08:41:43;14.10;99.90
58666;DHT22;44436;52.872;6.520;2022-10-30T08:44:09;14.20;99.90
58666;DHT22;44436;52.872;6.520;2022-10-30T08:46:34;14.30;99.90
58666;DHT22;44436;52.872;6.520;2022-10-30T08:49:00;14.30;99.90
58666;DHT22;44436;52.872;6.520;2022-10-30T08:51:26;14.40;99.90
58666;DHT22;44436;52.872;6.520;2022-10-30T08:53:52;14.40;99.90
58666;DHT22;44436;52.872;6.520;2022-10-30T08:56:18;14.40;99.90
58666;DHT22;44436;52.872;6.520;2022-10-30T08:58:43;14.50;99.90
58666;DHT22;44436;52.872;6.520;2022-10-30T09:01:09;14.50;99.90
58666;DHT22;44436;52.872;6.520;2022-10-30T09:03:35;14.60;99.90
58666;DHT22;44436;52.872;6.520;2022-10-30T09:06:01;14.70;99.90
58666;DHT22;44436;52.872;6.520;2022-10-30T09:08:27;14.70;99.90
58666;DHT22;44436;52.872;6.520;2022-10-30T09:10:57;14.80;99.90
58666;DHT22;44436;52.872;6.520;2022-10-30T09:13:23;14.90;99.90
58666;DHT22;44436;52.872;6.520;2022-10-30T09:15:50;14.90;99.90
58666;DHT22;44436;52.872;6.520;2022-10-30T09:18:16;15.00;99.90
58666;DHT22;44436;52.872;6.520;2022-10-30T09:20:41;15.00;99.90
58666;DHT22;44436;52.872;6.520;2022-10-30T09:23:07;15.10;99.90
58666;DHT22;44436;52.872;6.520;2022-10-30T09:25:33;15.10;99.90
58666;DHT22;44436;52.872;6.520;2022-10-30T09:27:59;15.20;99.90
58666;DHT22;44436;52.872;6.520;2022-10-30T09:30:24;15.30;99.90
58666;DHT22;44436;52.872;6.520;2022-10-30T09:32:57;15.30;99.90
58666;DHT22;44436;52.872;6.520;2022-10-30T09:35:23;15.40;99.90
58666;DHT22;44436;52.872;6.520;2022-10-30T09:37:49;15.40;99.90
58666;DHT22;44436;52.872;6.520;2022-10-30T09:46:19;15.70;99.90
58666;DHT22;44436;52.872;6.520;2022-10-30T09:51:55;15.90;99.90
58666;DHT22;44436;52.872;6.520;2022-10-30T09:54:44;16.00;99.90
58666;DHT22;44436;52.872;6.520;2022-10-30T10:00:03;16.20;99.90
58666;DHT22;44436;52.872;6.520;2022-10-30T10:05:25;16.30;99.90
58666;DHT22;44436;52.872;6.520;2022-10-30T10:08:03;16.40;99.90
58666;DHT22;44436;52.872;6.520;2022-10-30T10:10:51;16.40;99.90
58666;DHT22;44436;52.872;6.520;2022-10-30T10:13:44;16.50;99.90
58666;DHT22;44436;52.872;6.520;2022-10-30T10:16:16;16.60;99.90
58666;DHT22;44436;52.872;6.520;2022-10-30T10:21:25;16.80;99.90
58666;DHT22;44436;52.872;6.520;2022-10-30T10:23:54;16.90;99.90
58666;DHT22;44436;52.872;6.520;2022-10-30T10:31:45;17.20;99.90
58666;DHT22;44436;52.872;6.520;2022-10-30T10:37:38;17.30;99.90
58666;DHT22;44436;52.872;6.520;2022-10-30T10:40:14;17.40;99.90
58666;DHT22;44436;52.872;6.520;2022-10-30T10:43:14;17.40;99.90
58666;DHT22;44436;52.872;6.520;2022-10-30T10:51:07;17.60;99.90
58666;DHT22;44436;52.872;6.520;2022-10-30T10:56:18;17.70;99.90
58666;DHT22;44436;52.872;6.520;2022-10-30T10:58:54;17.70;99.90
58666;DHT22;44436;52.872;6.520;2022-10-30T11:01:26;17.80;99.90
58666;DHT22;44436;52.872;6.520;2022-10-30T11:03:59;17.80;99.90
58666;DHT22;44436;52.872;6.520;2022-10-30T11:06:34;17.80;99.90
58666;DHT22;44436;52.872;6.520;2022-10-30T11:09:16;17.90;99.90
58666;DHT22;44436;52.872;6.520;2022-10-30T11:11:49;18.00;99.90
58666;DHT22;44436;52.872;6.520;2022-10-30T11:14:18;18.00;99.90
58666;DHT22;44436;52.872;6.520;2022-10-30T11:19:19;18.10;99.90
58666;DHT22;44436;52.872;6.520;2022-10-30T11:21:48;18.10;99.90
58666;DHT22;44436;52.872;6.520;2022-10-30T11:24:32;18.10;99.90
58666;DHT22;44436;52.872;6.520;2022-10-30T11:27:25;18.10;99.90
58666;DHT22;44436;52.872;6.520;2022-10-30T11:30:01;18.20;99.90
58666;DHT22;44436;52.872;6.520;2022-10-30T11:32:30;18.20;99.90
58666;DHT22;44436;52.872;6.520;2022-10-30T11:37:31;18.20;99.90
58666;DHT22;44436;52.872;6.520;2022-10-30T11:45:17;18.30;99.90
58666;DHT22;44436;52.872;6.520;2022-10-30T11:47:44;18.30;99.90
58666;DHT22;44436;52.872;6.520;2022-10-30T11:50:17;18.50;99.90
58666;DHT22;44436;52.872;6.520;2022-10-30T11:52:45;18.50;99.90
58666;DHT22;44436;52.872;6.520;2022-10-30T11:55:23;18.60;99.90
58666;DHT22;44436;52.872;6.520;2022-10-30T11:57:59;18.60;99.90
58666;DHT22;44436;52.872;6.520;2022-10-30T12:00:27;18.60;99.90
58666;DHT22;44436;52.872;6.520;2022-10-30T12:02:56;18.60;99.90
58666;DHT22;44436;52.872;6.520;2022-10-30T12:07:51;18.60;99.90
58666;DHT22;44436;52.872;6.520;2022-10-30T12:10:25;18.60;99.90
58666;DHT22;44436;52.872;6.520;2022-10-30T12:12:50;18.60;99.90
58666;DHT22;44436;52.872;6.520;2022-10-30T12:17:59;18.60;99.90
58666;DHT22;44436;52.872;6.520;2022-10-30T12:20:25;18.60;99.90
58666;DHT22;44436;52.872;6.520;2022-10-30T12:22:52;18.60;99.90
58666;DHT22;44436;52.872;6.520;2022-10-30T12:25:32;18.60;99.90
58666;DHT22;44436;52.872;6.520;2022-10-30T12:30:25;18.60;99.90
58666;DHT22;44436;52.872;6.520;2022-10-30T12:33:03;18.70;99.90
58666;DHT22;44436;52.872;6.520;2022-10-30T12:35:49;18.70;99.90
58666;DHT22;44436;52.872;6.520;2022-10-30T12:43:34;18.70;99.90
58666;DHT22;44436;52.872;6.520;2022-10-30T12:46:14;18.70;99.90
58666;DHT22;44436;52.872;6.520;2022-10-30T12:48:51;18.70;99.90
58666;DHT22;44436;52.872;6.520;2022-10-30T12:51:33;18.80;99.90
58666;DHT22;44436;52.872;6.520;2022-10-30T12:56:50;18.90;99.90
58666;DHT22;44436;52.872;6.520;2022-10-30T13:02:10;18.90;99.90
58666;DHT22;44436;52.872;6.520;2022-10-30T13:04:40;18.90;99.90
58666;DHT22;44436;52.872;6.520;2022-10-30T13:12:39;19.10;99.90
58666;DHT22;44436;52.872;6.520;2022-10-30T13:15:35;19.10;99.90
58666;DHT22;44436;52.872;6.520;2022-10-30T13:18:13;19.20;99.90
58666;DHT22;44436;52.872;6.520;2022-10-30T13:20:41;19.30;99.90
58666;DHT22;44436;52.872;6.520;2022-10-30T13:23:20;19.30;99.90
58666;DHT22;44436;52.872;6.520;2022-10-30T13:26:09;19.40;99.90
58666;DHT22;44436;52.872;6.520;2022-10-30T13:28:47;19.40;99.90
58666;DHT22;44436;52.872;6.520;2022-10-30T13:31:43;19.40;99.90
58666;DHT22;44436;52.872;6.520;2022-10-30T13:34:33;19.40;99.90
58666;DHT22;44436;52.872;6.520;2022-10-30T13:47:41;19.30;99.90
58666;DHT22;44436;52.872;6.520;2022-10-30T13:53:23;19.30;99.90
58666;DHT22;44436;52.872;6.520;2022-10-30T13:55:51;19.30;99.90
58666;DHT22;44436;52.872;6.520;2022-10-30T14:04:49;19.40;99.90
58666;DHT22;44436;52.872;6.520;2022-10-30T14:13:02;19.40;99.90
58666;DHT22;44436;52.872;6.520;2022-10-30T14:20:43;19.40;99.90
58666;DHT22;44436;52.872;6.520;2022-10-30T14:23:27;19.30;99.90
58666;DHT22;44436;52.872;6.520;2022-10-30T14:28:30;19.30;99.90
58666;DHT22;44436;52.872;6.520;2022-10-30T14:31:19;19.30;99.90
58666;DHT22;44436;52.872;6.520;2022-10-30T14:33:56;19.30;99.90
58666;DHT22;44436;52.872;6.520;2022-10-30T14:36:23;19.40;99.90
58666;DHT22;44436;52.872;6.520;2022-10-30T14:41:36;19.40;99.90
58666;DHT22;44436;52.872;6.520;2022-10-30T14:49:46;19.40;99.90
58666;DHT22;44436;52.872;6.520;2022-10-30T14:55:34;19.30;99.90
58666;DHT22;44436;52.872;6.520;2022-10-30T15:00:36;19.20;99.90
58666;DHT22;44436;52.872;6.520;2022-10-30T15:08:53;19.10;99.90
58666;DHT22;44436;52.872;6.520;2022-10-30T15:11:26;19.00;99.90
58666;DHT22;44436;52.872;6.520;2022-10-30T15:14:01;18.90;99.90
58666;DHT22;44436;52.872;6.520;2022-10-30T15:16:28;18.80;99.90
58666;DHT22;44436;52.872;6.520;2022-10-30T15:19:02;18.80;99.90
58666;DHT22;44436;52.872;6.520;2022-10-30T15:21:30;18.70;99.90
58666;DHT22;44436;52.872;6.520;2022-10-30T15:23:59;18.70;99.90
58666;DHT22;44436;52.872;6.520;2022-10-30T15:26:32;18.60;99.90
58666;DHT22;44436;52.872;6.520;2022-10-30T15:29:00;18.50;99.90
58666;DHT22;44436;52.872;6.520;2022-10-30T15:31:28;18.50;99.90
58666;DHT22;44436;52.872;6.520;2022-10-30T15:33:54;18.40;99.90
58666;DHT22;44436;52.872;6.520;2022-10-30T15:36:26;18.40;99.90
58666;DHT22;44436;52.872;6.520;2022-10-30T15:39:15;18.30;99.90
58666;DHT22;44436;52.872;6.520;2022-10-30T15:44:14;18.20;99.90
58666;DHT22;44436;52.872;6.520;2022-10-30T15:46:43;18.10;99.90
58666;DHT22;44436;52.872;6.520;2022-10-30T15:49:14;18.10;99.90
58666;DHT22;44436;52.872;6.520;2022-10-30T15:51:44;18.00;99.90
58666;DHT22;44436;52.872;6.520;2022-10-30T15:54:12;17.90;99.90
58666;DHT22;44436;52.872;6.520;2022-10-30T15:56:43;17.80;99.90
58666;DHT22;44436;52.872;6.520;2022-10-30T15:59:22;17.90;99.90
58666;DHT22;44436;52.872;6.520;2022-10-30T16:01:51;17.80;99.90
58666;DHT22;44436;52.872;6.520;2022-10-30T16:04:29;17.80;99.90
58666;DHT22;44436;52.872;6.520;2022-10-30T16:07:00;17.70;99.90
58666;DHT22;44436;52.872;6.520;2022-10-30T16:09:27;17.60;99.90
58666;DHT22;44436;52.872;6.520;2022-10-30T16:11:56;17.60;99.90
58666;DHT22;44436;52.872;6.520;2022-10-30T16:14:27;17.60;99.90
58666;DHT22;44436;52.872;6.520;2022-10-30T16:16:54;17.50;99.90
58666;DHT22;44436;52.872;6.520;2022-10-30T16:19:26;17.40;99.90
58666;DHT22;44436;52.872;6.520;2022-10-30T16:21:54;17.40;99.90
58666;DHT22;44436;52.872;6.520;2022-10-30T16:24:32;17.30;99.90
58666;DHT22;44436;52.872;6.520;2022-10-30T16:27:27;17.30;99.90
58666;DHT22;44436;52.872;6.520;2022-10-30T16:29:56;17.20;99.90
58666;DHT22;44436;52.872;6.520;2022-10-30T16:32:28;17.20;99.90
58666;DHT22;44436;52.872;6.520;2022-10-30T16:34:56;17.10;99.90
58666;DHT22;44436;52.872;6.520;2022-10-30T16:37:37;17.10;99.90
58666;DHT22;44436;52.872;6.520;2022-10-30T16:40:27;17.00;99.90
58666;DHT22;44436;52.872;6.520;2022-10-30T16:42:57;17.00;99.90
58666;DHT22;44436;52.872;6.520;2022-10-30T16:48:07;16.90;99.90
58666;DHT22;44436;52.872;6.520;2022-10-30T16:50:37;16.90;99.90
58666;DHT22;44436;52.872;6.520;2022-10-30T16:53:17;16.80;99.90
58666;DHT22;44436;52.872;6.520;2022-10-30T16:55:43;16.80;99.90
58666;DHT22;44436;52.872;6.520;2022-10-30T16:58:11;16.80;99.90
58666;DHT22;44436;52.872;6.520;2022-10-30T17:00:40;16.70;99.90
58666;DHT22;44436;52.872;6.520;2022-10-30T17:03:09;16.70;99.90
58666;DHT22;44436;52.872;6.520;2022-10-30T17:05:35;16.70;99.90
58666;DHT22;44436;52.872;6.520;2022-10-30T17:08:05;16.60;99.90
58666;DHT22;44436;52.872;6.520;2022-10-30T17:10:59;16.70;99.90
58666;DHT22;44436;52.872;6.520;2022-10-30T17:13:36;16.70;99.90
58666;DHT22;44436;52.872;6.520;2022-10-30T17:18:40;16.70;99.90
58666;DHT22;44436;52.872;6.520;2022-10-30T17:21:14;16.70;99.90
58666;DHT22;44436;52.872;6.520;2022-10-30T17:23:56;16.70;99.90
58666;DHT22;44436;52.872;6.520;2022-10-30T17:26:22;16.70;99.90
58666;DHT22;44436;52.872;6.520;2022-10-30T17:28:48;16.70;99.90
58666;DHT22;44436;52.872;6.520;2022-10-30T17:33:47;16.70;99.90
58666;DHT22;44436;52.872;6.520;2022-10-30T17:36:13;16.70;99.90
58666;DHT22;44436;52.872;6.520;2022-10-30T17:38:39;16.60;99.90
58666;DHT22;44436;52.872;6.520;2022-10-30T17:41:05;16.60;99.90
58666;DHT22;44436;52.872;6.520;2022-10-30T17:43:34;16.60;99.90
58666;DHT22;44436;52.872;6.520;2022-10-30T17:46:11;16.60;99.90
58666;DHT22;44436;52.872;6.520;2022-10-30T17:48:37;16.60;99.90
58666;DHT22;44436;52.872;6.520;2022-10-30T17:51:03;16.60;99.90
58666;DHT22;44436;52.872;6.520;2022-10-30T17:53:28;16.60;99.90
58666;DHT22;44436;52.872;6.520;2022-10-30T17:55:58;16.60;99.90
58666;DHT22;44436;52.872;6.520;2022-10-30T17:58:25;16.60;99.90
58666;DHT22;44436;52.872;6.520;2022-10-30T18:00:51;16.60;99.90
58666;DHT22;44436;52.872;6.520;2022-10-30T18:03:16;16.50;99.90
58666;DHT22;44436;52.872;6.520;2022-10-30T18:05:42;16.50;99.90
58666;DHT22;44436;52.872;6.520;2022-10-30T18:08:09;16.50;99.90
58666;DHT22;44436;52.872;6.520;2022-10-30T18:10:34;16.50;99.90
58666;DHT22;44436;52.872;6.520;2022-10-30T18:13:00;16.50;99.90
58666;DHT22;44436;52.872;6.520;2022-10-30T18:15:35;16.50;99.90
58666;DHT22;44436;52.872;6.520;2022-10-30T18:18:04;16.50;99.90